Pagrindinis puslapis
METAR-TAF:

METAR-TAF

Oro uostai :

Erebru, Švedija

platuma: 59-14N, ilguma: 015-03E, Aukštis: 57 m

Dabartinis oras

Ataskaita buvo paskelbta 16 minutes, ne 10:50 UTC
Vėjas 11 kt iš Pietų
Temperatūra 18°C
Drėgmė 59%
Slėgis 1023 hPa
Matomumas 10 km arba daugiau
Mažai debesys ne aukštis 3300 ft
Su prošvaistėmis ne aukštis 4700 ft

METAR: ESOE 221050Z 19011KT 9999 FEW033 BKN047 18/10 Q1023

Laikas: 13:06 (11:06 UTC)

Prognozė

Ataskaita buvo paskelbta 2 valandos ir 36 minutes, ne 08:30 UTC
Prognozė galioja nuo 22 metu 09 UTC su 22 metu 18 UTC
Vėjas 8 kt iš Pietvakarių
Matomumas 10 km arba daugiau
Išsisklaidę debesys ne aukštis 2500 ft
Laikinai
nuo 22 metu 15 UTC su 22 metu 18 UTC
lietus

TAF: ESOE 220830Z 2209/2218 23008KT 9999 SCT025 TEMPO 2215/2218 RA

Orai ataskaitas ir orų prognozės (METAR, TAF).

turimą stotys yra geltonos ir raudonos taškus žemėlapyje.

Perkelti pele per norėdami pamatyti stoties vardą.

Tada spustelėkite, norėdami matyti oro stebėjimo ir prognozės.

Norėdami pakeisti žemėlapį: spustelėkite ant žalios mygtukų su juodo kryžiaus žemyn,; žalią mygtuką su brūkšneliu, jei norite nutolinti; arba žalių rodyklių gretimoms žemėlapius.


METAR-TAF: